Pagrindinis puslapis
METAR-TAF:

METAR-TAF

Oro uostai :

Vadsė, Norvegija

platuma: 70-04N, ilguma: 029-51E, Aukštis: 3 m

Dabartinis oras

Ataskaita buvo paskelbta 10 minutes, ne 11:20 UTC
Vėjas 3 kt iš Šiaurės Vakarų
Temperatūra -1°C
Drėgmė 86%
Slėgis 1005 hPa
Matomumas 10 km arba daugiau
Su prošvaistėmis ne aukštis 700 ft
sniegas

METAR: ENVD 071120Z 31003KT 9999 -SN BKN007 M01/M03 Q1005

Laikas: 12:30 (11:30 UTC)

Prognozė

Ataskaita buvo paskelbta 3 valandos ir 30 minutes, ne 08:00 UTC
Prognozė galioja nuo 07 metu 09 UTC su 07 metu 18 UTC
Vėjas 12 kt iš Vakarų/Šiaurės Vakarų
Matomumas 10 km arba daugiau
Su prošvaistėmis ne aukštis 1800 ft
Tapsmas
nuo 07 metu 09 UTC su 07 metu 10 UTC
Vėjas 8 kt iš Pietų/Pietvakarių
Laikinai
nuo 07 metu 09 UTC su 07 metu 12 UTC
Su prošvaistėmis ne aukštis 1400 ft
Tikimybė 40% :
Laikinai
nuo 07 metu 12 UTC su 07 metu 16 UTC
Su prošvaistėmis ne aukštis 600 ft

TAF: ENVD 070800Z 0709/0718 29012KT 9999 BKN018 BECMG 0709/0710 20008KT TEMPO 0709/0712 BKN014 PROB40 TEMPO 0712/0716 BKN006

Orai ataskaitas ir orų prognozės (METAR, TAF).

turimą stotys yra geltonos ir raudonos taškus žemėlapyje.

Perkelti pele per norėdami pamatyti stoties vardą.

Tada spustelėkite, norėdami matyti oro stebėjimo ir prognozės.

Norėdami pakeisti žemėlapį: spustelėkite ant žalios mygtukų su juodo kryžiaus žemyn,; žalią mygtuką su brūkšneliu, jei norite nutolinti; arba žalių rodyklių gretimoms žemėlapius.


METAR-TAF: